sensor_id;sensor_type;location;lat;lon;timestamp;P1;durP1;ratioP1;P2;durP2;ratioP2
1336;SDS011;662;48.814;9.318;2023-12-20T00:01:01;2.03;;;1.93;;
1336;SDS011;662;48.814;9.318;2023-12-20T00:03:28;1.93;;;1.73;;
1336;SDS011;662;48.814;9.318;2023-12-20T00:05:53;2.20;;;2.00;;
1336;SDS011;662;48.814;9.318;2023-12-20T00:08:19;1.90;;;1.80;;
1336;SDS011;662;48.814;9.318;2023-12-20T00:10:44;2.10;;;1.90;;
1336;SDS011;662;48.814;9.318;2023-12-20T00:13:10;1.90;;;1.80;;
1336;SDS011;662;48.814;9.318;2023-12-20T00:15:36;2.17;;;1.90;;
1336;SDS011;662;48.814;9.318;2023-12-20T00:18:02;1.83;;;1.70;;
1336;SDS011;662;48.814;9.318;2023-12-20T00:20:28;1.70;;;1.57;;
1336;SDS011;662;48.814;9.318;2023-12-20T00:22:55;1.73;;;1.63;;
1336;SDS011;662;48.814;9.318;2023-12-20T00:25:22;1.90;;;1.80;;
1336;SDS011;662;48.814;9.318;2023-12-20T00:27:48;1.50;;;1.40;;
1336;SDS011;662;48.814;9.318;2023-12-20T00:30:14;2.03;;;1.70;;
1336;SDS011;662;48.814;9.318;2023-12-20T00:32:40;1.47;;;1.37;;
1336;SDS011;662;48.814;9.318;2023-12-20T00:35:11;1.53;;;1.43;;
1336;SDS011;662;48.814;9.318;2023-12-20T00:37:37;1.50;;;1.40;;
1336;SDS011;662;48.814;9.318;2023-12-20T00:40:03;1.70;;;1.60;;
1336;SDS011;662;48.814;9.318;2023-12-20T00:42:29;1.40;;;1.30;;
1336;SDS011;662;48.814;9.318;2023-12-20T00:44:55;1.20;;;1.10;;
1336;SDS011;662;48.814;9.318;2023-12-20T00:47:20;1.43;;;1.33;;
1336;SDS011;662;48.814;9.318;2023-12-20T00:49:47;1.30;;;1.20;;
1336;SDS011;662;48.814;9.318;2023-12-20T00:52:12;1.57;;;1.47;;
1336;SDS011;662;48.814;9.318;2023-12-20T00:54:38;1.70;;;1.60;;
1336;SDS011;662;48.814;9.318;2023-12-20T00:57:04;1.43;;;1.33;;
1336;SDS011;662;48.814;9.318;2023-12-20T00:59:29;3.13;;;1.43;;
1336;SDS011;662;48.814;9.318;2023-12-20T01:01:55;2.30;;;1.50;;
1336;SDS011;662;48.814;9.318;2023-12-20T01:04:21;1.53;;;1.43;;
1336;SDS011;662;48.814;9.318;2023-12-20T01:06:46;1.43;;;1.30;;
1336;SDS011;662;48.814;9.318;2023-12-20T01:09:12;1.53;;;1.40;;
1336;SDS011;662;48.814;9.318;2023-12-20T01:11:37;1.67;;;1.47;;
1336;SDS011;662;48.814;9.318;2023-12-20T01:14:03;1.50;;;1.40;;
1336;SDS011;662;48.814;9.318;2023-12-20T01:16:28;1.50;;;1.20;;
1336;SDS011;662;48.814;9.318;2023-12-20T01:18:54;1.37;;;1.27;;
1336;SDS011;662;48.814;9.318;2023-12-20T01:21:20;1.63;;;1.50;;
1336;SDS011;662;48.814;9.318;2023-12-20T01:23:45;2.00;;;1.80;;
1336;SDS011;662;48.814;9.318;2023-12-20T01:26:11;1.47;;;1.37;;
1336;SDS011;662;48.814;9.318;2023-12-20T01:28:37;1.90;;;1.47;;
1336;SDS011;662;48.814;9.318;2023-12-20T01:31:03;1.50;;;1.40;;
1336;SDS011;662;48.814;9.318;2023-12-20T01:33:29;2.30;;;2.10;;
1336;SDS011;662;48.814;9.318;2023-12-20T01:35:54;4.30;;;1.57;;
1336;SDS011;662;48.814;9.318;2023-12-20T01:38:20;3.70;;;2.10;;
1336;SDS011;662;48.814;9.318;2023-12-20T01:40:45;1.80;;;1.70;;
1336;SDS011;662;48.814;9.318;2023-12-20T01:43:11;1.90;;;1.70;;
1336;SDS011;662;48.814;9.318;2023-12-20T01:45:37;1.60;;;1.47;;
1336;SDS011;662;48.814;9.318;2023-12-20T01:48:03;1.90;;;1.67;;
1336;SDS011;662;48.814;9.318;2023-12-20T01:50:30;1.60;;;1.50;;
1336;SDS011;662;48.814;9.318;2023-12-20T01:52:57;1.70;;;1.60;;
1336;SDS011;662;48.814;9.318;2023-12-20T01:55:29;1.90;;;1.47;;
1336;SDS011;662;48.814;9.318;2023-12-20T01:57:58;1.67;;;1.50;;
1336;SDS011;662;48.814;9.318;2023-12-20T02:00:25;1.80;;;1.70;;
1336;SDS011;662;48.814;9.318;2023-12-20T02:02:53;1.80;;;1.70;;
1336;SDS011;662;48.814;9.318;2023-12-20T02:05:20;3.17;;;1.70;;
1336;SDS011;662;48.814;9.318;2023-12-20T02:07:47;1.70;;;1.60;;
1336;SDS011;662;48.814;9.318;2023-12-20T02:10:12;2.00;;;1.90;;
1336;SDS011;662;48.814;9.318;2023-12-20T02:12:38;1.47;;;1.37;;
1336;SDS011;662;48.814;9.318;2023-12-20T02:15:04;1.60;;;1.50;;
1336;SDS011;662;48.814;9.318;2023-12-20T02:17:31;1.97;;;1.73;;
1336;SDS011;662;48.814;9.318;2023-12-20T02:19:57;1.60;;;1.50;;
1336;SDS011;662;48.814;9.318;2023-12-20T02:22:23;2.57;;;1.93;;
1336;SDS011;662;48.814;9.318;2023-12-20T02:24:48;2.20;;;2.03;;
1336;SDS011;662;48.814;9.318;2023-12-20T02:27:14;2.13;;;2.03;;
1336;SDS011;662;48.814;9.318;2023-12-20T02:29:42;2.80;;;2.17;;
1336;SDS011;662;48.814;9.318;2023-12-20T02:32:08;1.60;;;1.50;;
1336;SDS011;662;48.814;9.318;2023-12-20T02:34:34;1.90;;;1.80;;
1336;SDS011;662;48.814;9.318;2023-12-20T02:36:59;1.97;;;1.87;;
1336;SDS011;662;48.814;9.318;2023-12-20T02:39:25;2.20;;;1.93;;
1336;SDS011;662;48.814;9.318;2023-12-20T02:41:51;2.80;;;1.90;;
1336;SDS011;662;48.814;9.318;2023-12-20T02:44:17;2.60;;;2.13;;
1336;SDS011;662;48.814;9.318;2023-12-20T02:46:42;2.53;;;1.87;;
1336;SDS011;662;48.814;9.318;2023-12-20T02:49:08;2.27;;;2.07;;
1336;SDS011;662;48.814;9.318;2023-12-20T02:51:34;2.30;;;2.10;;
1336;SDS011;662;48.814;9.318;2023-12-20T02:53:59;2.60;;;1.90;;
1336;SDS011;662;48.814;9.318;2023-12-20T02:56:25;2.13;;;1.83;;
1336;SDS011;662;48.814;9.318;2023-12-20T02:58:50;3.37;;;2.20;;
1336;SDS011;662;48.814;9.318;2023-12-20T03:01:16;2.60;;;2.03;;
1336;SDS011;662;48.814;9.318;2023-12-20T03:03:42;2.57;;;1.90;;
1336;SDS011;662;48.814;9.318;2023-12-20T03:06:07;2.67;;;2.30;;
1336;SDS011;662;48.814;9.318;2023-12-20T03:08:33;2.60;;;2.40;;
1336;SDS011;662;48.814;9.318;2023-12-20T03:10:59;2.23;;;2.00;;
1336;SDS011;662;48.814;9.318;2023-12-20T03:13:25;3.27;;;2.30;;
1336;SDS011;662;48.814;9.318;2023-12-20T03:15:50;3.43;;;2.53;;
1336;SDS011;662;48.814;9.318;2023-12-20T03:18:16;3.00;;;2.70;;
1336;SDS011;662;48.814;9.318;2023-12-20T03:20:43;2.50;;;2.30;;
1336;SDS011;662;48.814;9.318;2023-12-20T03:23:08;2.47;;;2.27;;
1336;SDS011;662;48.814;9.318;2023-12-20T03:25:34;2.03;;;1.83;;
1336;SDS011;662;48.814;9.318;2023-12-20T03:28:00;2.50;;;2.00;;
1336;SDS011;662;48.814;9.318;2023-12-20T03:30:25;2.30;;;2.00;;
1336;SDS011;662;48.814;9.318;2023-12-20T03:32:51;2.30;;;2.10;;
1336;SDS011;662;48.814;9.318;2023-12-20T03:35:16;1.87;;;1.70;;
1336;SDS011;662;48.814;9.318;2023-12-20T03:37:42;1.70;;;1.60;;
1336;SDS011;662;48.814;9.318;2023-12-20T03:40:08;1.70;;;1.60;;
1336;SDS011;662;48.814;9.318;2023-12-20T03:42:34;1.97;;;1.77;;
1336;SDS011;662;48.814;9.318;2023-12-20T03:44:59;1.60;;;1.50;;
1336;SDS011;662;48.814;9.318;2023-12-20T03:47:25;3.87;;;1.60;;
1336;SDS011;662;48.814;9.318;2023-12-20T03:49:51;1.17;;;1.07;;
1336;SDS011;662;48.814;9.318;2023-12-20T03:52:16;1.63;;;0.90;;
1336;SDS011;662;48.814;9.318;2023-12-20T03:54:42;1.23;;;1.10;;
1336;SDS011;662;48.814;9.318;2023-12-20T03:57:08;1.17;;;1.00;;
1336;SDS011;662;48.814;9.318;2023-12-20T03:59:37;0.80;;;0.80;;
1336;SDS011;662;48.814;9.318;2023-12-20T04:02:03;0.80;;;0.80;;
1336;SDS011;662;48.814;9.318;2023-12-20T04:04:29;1.20;;;0.80;;
1336;SDS011;662;48.814;9.318;2023-12-20T04:06:55;0.90;;;0.90;;
1336;SDS011;662;48.814;9.318;2023-12-20T04:09:20;0.97;;;0.70;;
1336;SDS011;662;48.814;9.318;2023-12-20T04:11:46;3.53;;;0.70;;
1336;SDS011;662;48.814;9.318;2023-12-20T04:14:12;0.70;;;0.70;;
1336;SDS011;662;48.814;9.318;2023-12-20T04:16:37;2.50;;;0.80;;
1336;SDS011;662;48.814;9.318;2023-12-20T04:19:04;0.70;;;0.70;;
1336;SDS011;662;48.814;9.318;2023-12-20T04:21:29;1.10;;;0.80;;
1336;SDS011;662;48.814;9.318;2023-12-20T04:23:55;1.07;;;0.60;;
1336;SDS011;662;48.814;9.318;2023-12-20T04:26:20;0.60;;;0.60;;
1336;SDS011;662;48.814;9.318;2023-12-20T04:28:46;0.60;;;0.60;;
1336;SDS011;662;48.814;9.318;2023-12-20T04:31:12;3.67;;;0.80;;
1336;SDS011;662;48.814;9.318;2023-12-20T04:33:37;0.93;;;0.80;;
1336;SDS011;662;48.814;9.318;2023-12-20T04:36:03;0.70;;;0.70;;
1336;SDS011;662;48.814;9.318;2023-12-20T04:38:29;0.60;;;0.60;;
1336;SDS011;662;48.814;9.318;2023-12-20T04:40:55;0.63;;;0.60;;
1336;SDS011;662;48.814;9.318;2023-12-20T04:43:20;1.27;;;0.60;;
1336;SDS011;662;48.814;9.318;2023-12-20T04:45:46;1.43;;;0.70;;
1336;SDS011;662;48.814;9.318;2023-12-20T04:48:12;0.80;;;0.80;;
1336;SDS011;662;48.814;9.318;2023-12-20T04:50:37;1.93;;;0.80;;
1336;SDS011;662;48.814;9.318;2023-12-20T04:53:03;1.57;;;0.80;;
1336;SDS011;662;48.814;9.318;2023-12-20T04:55:28;1.33;;;1.23;;
1336;SDS011;662;48.814;9.318;2023-12-20T04:57:55;0.70;;;0.70;;
1336;SDS011;662;48.814;9.318;2023-12-20T05:00:21;1.77;;;1.53;;
1336;SDS011;662;48.814;9.318;2023-12-20T05:02:49;1.60;;;0.73;;
1336;SDS011;662;48.814;9.318;2023-12-20T05:05:14;0.83;;;0.83;;
1336;SDS011;662;48.814;9.318;2023-12-20T05:07:42;0.60;;;0.60;;
1336;SDS011;662;48.814;9.318;2023-12-20T05:10:09;0.70;;;0.70;;
1336;SDS011;662;48.814;9.318;2023-12-20T05:12:35;4.30;;;1.00;;
1336;SDS011;662;48.814;9.318;2023-12-20T05:15:05;1.47;;;0.80;;
1336;SDS011;662;48.814;9.318;2023-12-20T05:17:32;1.03;;;0.70;;
1336;SDS011;662;48.814;9.318;2023-12-20T05:19:57;1.10;;;0.70;;
1336;SDS011;662;48.814;9.318;2023-12-20T05:22:24;0.83;;;0.70;;
1336;SDS011;662;48.814;9.318;2023-12-20T05:24:49;0.90;;;0.70;;
1336;SDS011;662;48.814;9.318;2023-12-20T05:27:16;0.60;;;0.60;;
1336;SDS011;662;48.814;9.318;2023-12-20T05:29:42;0.80;;;0.60;;
1336;SDS011;662;48.814;9.318;2023-12-20T05:32:07;0.70;;;0.70;;
1336;SDS011;662;48.814;9.318;2023-12-20T05:34:33;0.83;;;0.70;;
1336;SDS011;662;48.814;9.318;2023-12-20T05:36:58;0.80;;;0.80;;
1336;SDS011;662;48.814;9.318;2023-12-20T05:39:24;0.70;;;0.70;;
1336;SDS011;662;48.814;9.318;2023-12-20T05:41:50;0.60;;;0.60;;
1336;SDS011;662;48.814;9.318;2023-12-20T05:44:16;0.60;;;0.60;;
1336;SDS011;662;48.814;9.318;2023-12-20T05:46:41;1.00;;;0.70;;
1336;SDS011;662;48.814;9.318;2023-12-20T05:49:07;1.40;;;0.67;;
1336;SDS011;662;48.814;9.318;2023-12-20T05:51:33;0.70;;;0.70;;
1336;SDS011;662;48.814;9.318;2023-12-20T05:53:58;0.73;;;0.73;;
1336;SDS011;662;48.814;9.318;2023-12-20T05:56:24;0.80;;;0.80;;
1336;SDS011;662;48.814;9.318;2023-12-20T05:58:50;0.80;;;0.80;;
1336;SDS011;662;48.814;9.318;2023-12-20T06:01:15;1.20;;;1.10;;
1336;SDS011;662;48.814;9.318;2023-12-20T06:03:44;0.80;;;0.80;;
1336;SDS011;662;48.814;9.318;2023-12-20T06:06:11;0.80;;;0.80;;
1336;SDS011;662;48.814;9.318;2023-12-20T06:08:38;0.90;;;0.80;;
1336;SDS011;662;48.814;9.318;2023-12-20T06:11:05;1.43;;;1.27;;
1336;SDS011;662;48.814;9.318;2023-12-20T06:13:31;0.83;;;0.83;;
1336;SDS011;662;48.814;9.318;2023-12-20T06:15:57;1.00;;;1.00;;
1336;SDS011;662;48.814;9.318;2023-12-20T06:18:22;1.03;;;1.03;;
1336;SDS011;662;48.814;9.318;2023-12-20T06:20:48;0.73;;;0.73;;
1336;SDS011;662;48.814;9.318;2023-12-20T06:23:14;1.03;;;0.80;;
1336;SDS011;662;48.814;9.318;2023-12-20T06:25:40;1.40;;;1.27;;
1336;SDS011;662;48.814;9.318;2023-12-20T06:28:06;3.23;;;1.20;;
1336;SDS011;662;48.814;9.318;2023-12-20T06:30:35;1.73;;;1.53;;
1336;SDS011;662;48.814;9.318;2023-12-20T06:33:01;1.33;;;1.23;;
1336;SDS011;662;48.814;9.318;2023-12-20T06:35:27;1.63;;;1.43;;
1336;SDS011;662;48.814;9.318;2023-12-20T06:37:53;1.53;;;1.43;;
1336;SDS011;662;48.814;9.318;2023-12-20T06:40:19;1.60;;;1.47;;
1336;SDS011;662;48.814;9.318;2023-12-20T06:42:46;1.87;;;1.67;;
1336;SDS011;662;48.814;9.318;2023-12-20T06:45:11;1.60;;;1.50;;
1336;SDS011;662;48.814;9.318;2023-12-20T06:47:37;3.57;;;2.40;;
1336;SDS011;662;48.814;9.318;2023-12-20T06:50:03;3.03;;;2.60;;
1336;SDS011;662;48.814;9.318;2023-12-20T06:52:29;2.23;;;1.90;;
1336;SDS011;662;48.814;9.318;2023-12-20T06:54:55;2.67;;;2.30;;
1336;SDS011;662;48.814;9.318;2023-12-20T06:57:20;2.90;;;2.37;;
1336;SDS011;662;48.814;9.318;2023-12-20T06:59:46;2.17;;;1.97;;
1336;SDS011;662;48.814;9.318;2023-12-20T07:02:12;2.10;;;1.90;;
1336;SDS011;662;48.814;9.318;2023-12-20T07:04:41;1.97;;;1.87;;
1336;SDS011;662;48.814;9.318;2023-12-20T07:07:07;3.07;;;1.90;;
1336;SDS011;662;48.814;9.318;2023-12-20T07:09:32;2.47;;;2.03;;
1336;SDS011;662;48.814;9.318;2023-12-20T07:11:58;3.80;;;2.40;;
1336;SDS011;662;48.814;9.318;2023-12-20T07:14:24;2.07;;;1.90;;
1336;SDS011;662;48.814;9.318;2023-12-20T07:16:50;1.40;;;1.30;;
1336;SDS011;662;48.814;9.318;2023-12-20T07:19:16;2.00;;;1.80;;
1336;SDS011;662;48.814;9.318;2023-12-20T07:21:42;2.60;;;2.40;;
1336;SDS011;662;48.814;9.318;2023-12-20T07:24:11;2.60;;;2.10;;
1336;SDS011;662;48.814;9.318;2023-12-20T07:26:36;4.03;;;2.60;;
1336;SDS011;662;48.814;9.318;2023-12-20T07:29:06;2.43;;;1.97;;
1336;SDS011;662;48.814;9.318;2023-12-20T07:31:32;3.23;;;2.83;;
1336;SDS011;662;48.814;9.318;2023-12-20T07:33:58;6.13;;;2.47;;
1336;SDS011;662;48.814;9.318;2023-12-20T07:36:23;4.00;;;3.63;;
1336;SDS011;662;48.814;9.318;2023-12-20T07:38:49;4.10;;;3.70;;
1336;SDS011;662;48.814;9.318;2023-12-20T07:41:15;4.27;;;3.97;;
1336;SDS011;662;48.814;9.318;2023-12-20T07:43:46;4.27;;;3.87;;
1336;SDS011;662;48.814;9.318;2023-12-20T07:46:11;4.07;;;3.77;;
1336;SDS011;662;48.814;9.318;2023-12-20T07:48:37;5.00;;;3.87;;
1336;SDS011;662;48.814;9.318;2023-12-20T07:51:04;5.30;;;4.00;;
1336;SDS011;662;48.814;9.318;2023-12-20T07:53:30;5.30;;;3.90;;
1336;SDS011;662;48.814;9.318;2023-12-20T07:55:56;5.20;;;3.93;;
1336;SDS011;662;48.814;9.318;2023-12-20T07:58:22;4.03;;;3.73;;
1336;SDS011;662;48.814;9.318;2023-12-20T08:00:50;5.37;;;4.87;;
1336;SDS011;662;48.814;9.318;2023-12-20T08:03:18;4.40;;;4.00;;
1336;SDS011;662;48.814;9.318;2023-12-20T08:05:43;4.20;;;3.80;;
1336;SDS011;662;48.814;9.318;2023-12-20T08:08:09;4.20;;;3.70;;
1336;SDS011;662;48.814;9.318;2023-12-20T08:10:35;4.63;;;4.23;;
1336;SDS011;662;48.814;9.318;2023-12-20T08:13:00;4.17;;;3.80;;
1336;SDS011;662;48.814;9.318;2023-12-20T08:15:26;5.20;;;4.40;;
1336;SDS011;662;48.814;9.318;2023-12-20T08:17:51;4.90;;;4.40;;
1336;SDS011;662;48.814;9.318;2023-12-20T08:20:18;4.93;;;4.37;;
1336;SDS011;662;48.814;9.318;2023-12-20T08:22:43;4.07;;;3.70;;
1336;SDS011;662;48.814;9.318;2023-12-20T08:25:09;4.47;;;4.00;;
1336;SDS011;662;48.814;9.318;2023-12-20T08:27:39;4.90;;;4.47;;
1336;SDS011;662;48.814;9.318;2023-12-20T08:30:05;5.73;;;4.00;;
1336;SDS011;662;48.814;9.318;2023-12-20T08:32:33;4.43;;;4.03;;
1336;SDS011;662;48.814;9.318;2023-12-20T08:34:59;4.60;;;4.10;;
1336;SDS011;662;48.814;9.318;2023-12-20T08:37:25;5.03;;;4.13;;
1336;SDS011;662;48.814;9.318;2023-12-20T08:39:50;4.23;;;3.83;;
1336;SDS011;662;48.814;9.318;2023-12-20T08:42:16;4.20;;;3.87;;
1336;SDS011;662;48.814;9.318;2023-12-20T08:44:41;4.50;;;4.10;;
1336;SDS011;662;48.814;9.318;2023-12-20T08:47:07;4.63;;;3.67;;
1336;SDS011;662;48.814;9.318;2023-12-20T08:49:33;5.97;;;4.53;;
1336;SDS011;662;48.814;9.318;2023-12-20T08:51:58;4.53;;;4.13;;
1336;SDS011;662;48.814;9.318;2023-12-20T08:54:24;6.90;;;4.87;;
1336;SDS011;662;48.814;9.318;2023-12-20T08:56:53;5.40;;;4.50;;
1336;SDS011;662;48.814;9.318;2023-12-20T08:59:19;4.37;;;3.97;;
1336;SDS011;662;48.814;9.318;2023-12-20T09:01:45;4.57;;;4.23;;
1336;SDS011;662;48.814;9.318;2023-12-20T09:04:11;3.90;;;3.60;;
1336;SDS011;662;48.814;9.318;2023-12-20T09:06:37;4.20;;;3.67;;
1336;SDS011;662;48.814;9.318;2023-12-20T09:09:02;4.30;;;3.90;;
1336;SDS011;662;48.814;9.318;2023-12-20T09:11:28;3.97;;;3.67;;
1336;SDS011;662;48.814;9.318;2023-12-20T09:13:54;4.23;;;3.83;;
1336;SDS011;662;48.814;9.318;2023-12-20T09:16:19;4.10;;;3.70;;
1336;SDS011;662;48.814;9.318;2023-12-20T09:18:45;4.20;;;3.60;;
1336;SDS011;662;48.814;9.318;2023-12-20T09:21:11;6.60;;;3.67;;
1336;SDS011;662;48.814;9.318;2023-12-20T09:23:37;4.90;;;3.70;;
1336;SDS011;662;48.814;9.318;2023-12-20T09:26:03;3.70;;;3.20;;
1336;SDS011;662;48.814;9.318;2023-12-20T09:28:29;3.90;;;3.50;;
1336;SDS011;662;48.814;9.318;2023-12-20T09:30:55;3.87;;;3.50;;
1336;SDS011;662;48.814;9.318;2023-12-20T09:33:21;5.70;;;3.40;;
1336;SDS011;662;48.814;9.318;2023-12-20T09:35:49;5.10;;;3.97;;
1336;SDS011;662;48.814;9.318;2023-12-20T09:38:15;4.20;;;3.13;;
1336;SDS011;662;48.814;9.318;2023-12-20T09:40:42;3.70;;;3.40;;
1336;SDS011;662;48.814;9.318;2023-12-20T09:43:11;5.33;;;3.87;;
1336;SDS011;662;48.814;9.318;2023-12-20T09:45:40;5.70;;;3.43;;
1336;SDS011;662;48.814;9.318;2023-12-20T09:48:10;3.37;;;2.93;;
1336;SDS011;662;48.814;9.318;2023-12-20T09:50:37;3.17;;;2.83;;
1336;SDS011;662;48.814;9.318;2023-12-20T09:53:10;3.70;;;2.93;;
1336;SDS011;662;48.814;9.318;2023-12-20T09:55:39;4.00;;;3.03;;
1336;SDS011;662;48.814;9.318;2023-12-20T09:58:06;2.23;;;2.10;;
1336;SDS011;662;48.814;9.318;2023-12-20T10:00:33;3.23;;;2.53;;
1336;SDS011;662;48.814;9.318;2023-12-20T10:03:15;3.17;;;2.27;;
1336;SDS011;662;48.814;9.318;2023-12-20T10:05:41;3.53;;;2.33;;
1336;SDS011;662;48.814;9.318;2023-12-20T10:08:09;2.33;;;1.80;;
1336;SDS011;662;48.814;9.318;2023-12-20T10:10:35;2.70;;;2.20;;
1336;SDS011;662;48.814;9.318;2023-12-20T10:13:07;3.67;;;1.70;;
1336;SDS011;662;48.814;9.318;2023-12-20T10:15:35;2.27;;;1.80;;
1336;SDS011;662;48.814;9.318;2023-12-20T10:18:02;4.30;;;3.57;;
1336;SDS011;662;48.814;9.318;2023-12-20T10:20:28;1.80;;;1.70;;
1336;SDS011;662;48.814;9.318;2023-12-20T10:22:55;3.40;;;1.70;;
1336;SDS011;662;48.814;9.318;2023-12-20T10:25:24;8.13;;;2.13;;
1336;SDS011;662;48.814;9.318;2023-12-20T10:27:51;8.33;;;2.10;;
1336;SDS011;662;48.814;9.318;2023-12-20T10:30:42;4.33;;;2.20;;
1336;SDS011;662;48.814;9.318;2023-12-20T10:33:08;2.77;;;2.30;;
1336;SDS011;662;48.814;9.318;2023-12-20T10:35:35;2.43;;;2.00;;
1336;SDS011;662;48.814;9.318;2023-12-20T10:38:03;8.10;;;2.00;;
1336;SDS011;662;48.814;9.318;2023-12-20T10:40:30;2.90;;;1.97;;
1336;SDS011;662;48.814;9.318;2023-12-20T10:42:56;2.90;;;1.37;;
1336;SDS011;662;48.814;9.318;2023-12-20T10:45:24;5.63;;;2.70;;
1336;SDS011;662;48.814;9.318;2023-12-20T10:47:50;2.73;;;1.63;;
1336;SDS011;662;48.814;9.318;2023-12-20T10:50:16;2.30;;;1.60;;
1336;SDS011;662;48.814;9.318;2023-12-20T10:52:45;4.10;;;1.97;;
1336;SDS011;662;48.814;9.318;2023-12-20T10:55:14;2.60;;;1.80;;
1336;SDS011;662;48.814;9.318;2023-12-20T10:57:39;4.03;;;2.10;;
1336;SDS011;662;48.814;9.318;2023-12-20T11:00:07;2.83;;;1.87;;
1336;SDS011;662;48.814;9.318;2023-12-20T11:02:39;3.57;;;1.90;;
1336;SDS011;662;48.814;9.318;2023-12-20T11:07:58;3.47;;;1.80;;
1336;SDS011;662;48.814;9.318;2023-12-20T11:10:35;4.20;;;2.03;;
1336;SDS011;662;48.814;9.318;2023-12-20T11:13:40;4.87;;;1.80;;
1336;SDS011;662;48.814;9.318;2023-12-20T11:16:20;3.00;;;1.73;;
1336;SDS011;662;48.814;9.318;2023-12-20T11:18:46;3.43;;;1.80;;
1336;SDS011;662;48.814;9.318;2023-12-20T11:21:11;4.87;;;2.13;;
1336;SDS011;662;48.814;9.318;2023-12-20T11:23:40;7.23;;;1.90;;
1336;SDS011;662;48.814;9.318;2023-12-20T11:26:08;3.00;;;1.80;;
1336;SDS011;662;48.814;9.318;2023-12-20T11:28:33;6.03;;;2.50;;
1336;SDS011;662;48.814;9.318;2023-12-20T11:31:00;4.03;;;3.50;;
1336;SDS011;662;48.814;9.318;2023-12-20T11:33:29;10.20;;;3.70;;
1336;SDS011;662;48.814;9.318;2023-12-20T11:35:56;3.73;;;3.07;;
1336;SDS011;662;48.814;9.318;2023-12-20T11:38:24;4.63;;;2.57;;
1336;SDS011;662;48.814;9.318;2023-12-20T11:40:50;8.13;;;5.27;;
1336;SDS011;662;48.814;9.318;2023-12-20T11:43:31;6.13;;;3.27;;
1336;SDS011;662;48.814;9.318;2023-12-20T11:46:06;6.30;;;3.67;;
1336;SDS011;662;48.814;9.318;2023-12-20T11:48:37;5.40;;;2.00;;
1336;SDS011;662;48.814;9.318;2023-12-20T11:51:14;7.80;;;3.30;;
1336;SDS011;662;48.814;9.318;2023-12-20T11:53:43;6.30;;;2.80;;
1336;SDS011;662;48.814;9.318;2023-12-20T11:56:08;6.33;;;2.90;;
1336;SDS011;662;48.814;9.318;2023-12-20T11:58:38;8.70;;;5.60;;
1336;SDS011;662;48.814;9.318;2023-12-20T12:01:04;9.83;;;4.73;;
1336;SDS011;662;48.814;9.318;2023-12-20T12:03:32;10.17;;;2.80;;
1336;SDS011;662;48.814;9.318;2023-12-20T12:05:58;3.97;;;1.90;;
1336;SDS011;662;48.814;9.318;2023-12-20T12:08:23;7.37;;;2.97;;
1336;SDS011;662;48.814;9.318;2023-12-20T12:10:49;9.30;;;4.77;;
1336;SDS011;662;48.814;9.318;2023-12-20T12:13:14;4.80;;;2.90;;
1336;SDS011;662;48.814;9.318;2023-12-20T12:15:40;5.10;;;3.07;;
1336;SDS011;662;48.814;9.318;2023-12-20T12:18:10;10.27;;;4.90;;
1336;SDS011;662;48.814;9.318;2023-12-20T12:20:36;4.93;;;4.30;;
1336;SDS011;662;48.814;9.318;2023-12-20T12:23:02;3.53;;;2.37;;
1336;SDS011;662;48.814;9.318;2023-12-20T12:25:29;6.80;;;3.57;;
1336;SDS011;662;48.814;9.318;2023-12-20T12:27:56;5.50;;;3.10;;
1336;SDS011;662;48.814;9.318;2023-12-20T12:30:25;2.70;;;2.03;;
1336;SDS011;662;48.814;9.318;2023-12-20T12:32:53;9.87;;;2.73;;
1336;SDS011;662;48.814;9.318;2023-12-20T12:35:21;10.07;;;3.93;;
1336;SDS011;662;48.814;9.318;2023-12-20T12:37:47;5.10;;;2.20;;
1336;SDS011;662;48.814;9.318;2023-12-20T12:40:14;4.20;;;2.37;;
1336;SDS011;662;48.814;9.318;2023-12-20T12:42:41;6.57;;;2.00;;
1336;SDS011;662;48.814;9.318;2023-12-20T12:45:08;6.40;;;4.03;;
1336;SDS011;662;48.814;9.318;2023-12-20T12:47:34;2.43;;;2.00;;
1336;SDS011;662;48.814;9.318;2023-12-20T12:50:00;5.30;;;1.80;;
1336;SDS011;662;48.814;9.318;2023-12-20T12:52:26;4.37;;;2.00;;
1336;SDS011;662;48.814;9.318;2023-12-20T12:54:57;5.57;;;2.00;;
1336;SDS011;662;48.814;9.318;2023-12-20T12:57:23;4.07;;;2.13;;
1336;SDS011;662;48.814;9.318;2023-12-20T12:59:49;3.13;;;1.80;;
1336;SDS011;662;48.814;9.318;2023-12-20T13:02:15;3.50;;;1.70;;
1336;SDS011;662;48.814;9.318;2023-12-20T13:04:41;4.60;;;2.30;;
1336;SDS011;662;48.814;9.318;2023-12-20T13:07:07;2.97;;;2.23;;
1336;SDS011;662;48.814;9.318;2023-12-20T13:09:35;3.90;;;1.97;;
1336;SDS011;662;48.814;9.318;2023-12-20T13:12:01;3.00;;;2.37;;
1336;SDS011;662;48.814;9.318;2023-12-20T13:14:28;2.33;;;2.10;;
1336;SDS011;662;48.814;9.318;2023-12-20T13:16:55;2.67;;;2.27;;
1336;SDS011;662;48.814;9.318;2023-12-20T13:19:21;4.13;;;1.90;;
1336;SDS011;662;48.814;9.318;2023-12-20T13:21:47;3.10;;;1.70;;
1336;SDS011;662;48.814;9.318;2023-12-20T13:24:13;3.30;;;2.03;;
1336;SDS011;662;48.814;9.318;2023-12-20T13:26:42;6.17;;;1.70;;
1336;SDS011;662;48.814;9.318;2023-12-20T13:29:07;2.47;;;1.87;;
1336;SDS011;662;48.814;9.318;2023-12-20T13:31:33;4.10;;;1.70;;
1336;SDS011;662;48.814;9.318;2023-12-20T13:34:01;3.13;;;1.70;;
1336;SDS011;662;48.814;9.318;2023-12-20T13:36:27;4.37;;;1.60;;
1336;SDS011;662;48.814;9.318;2023-12-20T13:38:55;2.73;;;1.53;;
1336;SDS011;662;48.814;9.318;2023-12-20T13:41:21;2.93;;;1.43;;
1336;SDS011;662;48.814;9.318;2023-12-20T13:43:50;3.10;;;1.90;;
1336;SDS011;662;48.814;9.318;2023-12-20T13:46:15;3.23;;;2.13;;
1336;SDS011;662;48.814;9.318;2023-12-20T13:48:42;5.00;;;1.90;;
1336;SDS011;662;48.814;9.318;2023-12-20T13:51:07;3.30;;;1.60;;
1336;SDS011;662;48.814;9.318;2023-12-20T13:53:34;4.57;;;1.93;;
1336;SDS011;662;48.814;9.318;2023-12-20T13:56:07;3.33;;;1.57;;
1336;SDS011;662;48.814;9.318;2023-12-20T13:58:33;4.43;;;2.03;;
1336;SDS011;662;48.814;9.318;2023-12-20T14:00:58;3.93;;;1.57;;
1336;SDS011;662;48.814;9.318;2023-12-20T14:03:35;3.40;;;1.70;;
1336;SDS011;662;48.814;9.318;2023-12-20T14:06:01;9.17;;;1.93;;
1336;SDS011;662;48.814;9.318;2023-12-20T14:08:26;2.47;;;1.83;;
1336;SDS011;662;48.814;9.318;2023-12-20T14:10:53;4.20;;;1.70;;
1336;SDS011;662;48.814;9.318;2023-12-20T14:13:19;3.40;;;1.57;;
1336;SDS011;662;48.814;9.318;2023-12-20T14:15:47;1.50;;;1.40;;
1336;SDS011;662;48.814;9.318;2023-12-20T14:18:14;5.37;;;1.30;;
1336;SDS011;662;48.814;9.318;2023-12-20T14:20:40;2.93;;;1.70;;
1336;SDS011;662;48.814;9.318;2023-12-20T14:23:07;4.87;;;2.10;;
1336;SDS011;662;48.814;9.318;2023-12-20T14:25:34;3.90;;;1.90;;
1336;SDS011;662;48.814;9.318;2023-12-20T14:28:02;1.33;;;1.23;;
1336;SDS011;662;48.814;9.318;2023-12-20T14:30:29;4.20;;;2.30;;
1336;SDS011;662;48.814;9.318;2023-12-20T14:32:54;2.63;;;1.57;;
1336;SDS011;662;48.814;9.318;2023-12-20T14:35:20;3.63;;;1.80;;
1336;SDS011;662;48.814;9.318;2023-12-20T14:37:45;4.53;;;2.33;;
1336;SDS011;662;48.814;9.318;2023-12-20T14:40:11;3.53;;;1.83;;
1336;SDS011;662;48.814;9.318;2023-12-20T14:42:41;6.50;;;1.80;;
1336;SDS011;662;48.814;9.318;2023-12-20T14:45:08;3.13;;;1.70;;
1336;SDS011;662;48.814;9.318;2023-12-20T14:47:34;3.80;;;1.97;;
1336;SDS011;662;48.814;9.318;2023-12-20T14:50:02;2.30;;;2.10;;
1336;SDS011;662;48.814;9.318;2023-12-20T14:52:29;6.47;;;1.97;;
1336;SDS011;662;48.814;9.318;2023-12-20T14:54:55;3.93;;;1.90;;
1336;SDS011;662;48.814;9.318;2023-12-20T14:57:21;4.50;;;1.70;;
1336;SDS011;662;48.814;9.318;2023-12-20T14:59:46;2.33;;;1.40;;
1336;SDS011;662;48.814;9.318;2023-12-20T15:02:12;3.50;;;1.80;;
1336;SDS011;662;48.814;9.318;2023-12-20T15:04:38;4.13;;;2.20;;
1336;SDS011;662;48.814;9.318;2023-12-20T15:07:03;1.50;;;1.40;;
1336;SDS011;662;48.814;9.318;2023-12-20T15:09:31;3.13;;;1.50;;
1336;SDS011;662;48.814;9.318;2023-12-20T15:11:56;2.70;;;1.97;;
1336;SDS011;662;48.814;9.318;2023-12-20T15:14:22;2.80;;;1.80;;
1336;SDS011;662;48.814;9.318;2023-12-20T15:16:48;3.83;;;1.60;;
1336;SDS011;662;48.814;9.318;2023-12-20T15:19:14;3.13;;;1.60;;
1336;SDS011;662;48.814;9.318;2023-12-20T15:21:40;6.70;;;2.30;;
1336;SDS011;662;48.814;9.318;2023-12-20T15:24:10;2.90;;;1.83;;
1336;SDS011;662;48.814;9.318;2023-12-20T15:26:51;4.30;;;1.97;;
1336;SDS011;662;48.814;9.318;2023-12-20T15:29:16;4.23;;;1.90;;